Terminal Aerodrome Forecast
Issued by NWS Brownsville, TX

Home | Current Version | Previous Version | Text Only | Print | Product List | Glossary On
Versions: 1 2 3 4 5 6 7 8 9 10 11 12 13 14 15 16 17 18 19 20 21 22 23 24 25 26 27 28 29 30 31 32 33 34 35 36 37 38 39 40 41 42 43 44 45 46 47 48 49 50
000
FTUS44 KBRO 170539
TAFBRO
TAF
KBRO 170539Z 1706/1806 14009KT P6SM FEW025
     FM170800 14008KT P6SM BKN025
      TEMPO 1709/1712 SCT025
     FM171400 15017G24KT P6SM SCT035 BKN250
     FM171800 15019G28KT P6SM SCT040 SCT250
     FM180000 14017G24KT P6SM SKC
     FM180300 14011KT P6SM SKC=

USA.gov is the U.S. government's official web portal to all federal, state and local government web resources and services.